Time;durP1;ratioP1;P1;durP2;ratioP2;P2;SDS_P1;SDS_P2;PMS_P1;PMS_P2;Temp;Humidity;BMP_temperature;BMP_pressure;BME280_temperature;BME280_humidity;BME280_pressure;Samples;Min_cycle;Max_cycle;Signal;HPM_P1;HPM_P2
2021/09/10 00:00:15;;;;;;;37.63;11.73;;;;;;;;;;5056145;28;20036;-77
2021/09/10 00:02:40;;;;;;;35.47;11.63;;;;;;;;;;5056107;28;20389;-78
2021/09/10 00:05:05;;;;;;;31.77;10.18;;;;;;;;;;5056040;28;20063;-79
2021/09/10 00:07:31;;;;;;;25.35;9.38;;;;;;;;;;5056101;28;20449;-77
2021/09/10 00:09:56;;;;;;;33.53;8.63;;;;;;;;;;5055685;28;20423;-77
2021/09/10 00:12:21;;;;;;;20.45;7.50;;;;;;;;;;5055284;28;20037;-79
2021/09/10 00:14:46;;;;;;;31.40;9.15;;;;;;;;;;5054731;28;20021;-78
2021/09/10 00:17:12;;;;;;;37.55;10.27;;;;;;;;;;5052607;28;20044;-77
2021/09/10 00:19:37;;;;;;;22.00;7.20;;;;;;;;;;5035989;28;20099;-78
2021/09/10 00:22:02;;;;;;;32.40;9.25;;;;;;;;;;5035887;28;20116;-77
2021/09/10 00:24:28;;;;;;;28.67;9.60;;;;;;;;;;5035854;28;20028;-77
2021/09/10 00:26:53;;;;;;;26.80;8.77;;;;;;;;;;5036403;28;20488;-78
2021/09/10 00:29:18;;;;;;;15.15;7.07;;;;;;;;;;5054559;28;20017;-77
2021/09/10 00:31:44;;;;;;;18.80;6.75;;;;;;;;;;5055248;28;20029;-77
2021/09/10 00:34:09;;;;;;;22.05;7.70;;;;;;;;;;5055606;28;20060;-78
2021/09/10 00:36:34;;;;;;;25.42;8.10;;;;;;;;;;5054959;28;20023;-78
2021/09/10 00:38:59;;;;;;;22.85;6.95;;;;;;;;;;5055242;28;20043;-77
2021/09/10 00:41:25;;;;;;;15.25;6.65;;;;;;;;;;5055468;28;20028;-77
2021/09/10 00:43:50;;;;;;;17.92;5.75;;;;;;;;;;5055413;28;20374;-77
2021/09/10 00:46:15;;;;;;;21.02;6.22;;;;;;;;;;5054794;28;20029;-77
2021/09/10 00:48:41;;;;;;;17.50;6.60;;;;;;;;;;5055294;28;20124;-78
2021/09/10 00:51:07;;;;;;;16.35;5.50;;;;;;;;;;5055230;28;20020;-77
2021/09/10 00:53:32;;;;;;;13.20;4.65;;;;;;;;;;5051197;28;20470;-78
2021/09/10 00:55:57;;;;;;;10.38;4.45;;;;;;;;;;5034858;28;20029;-77
2021/09/10 00:58:22;;;;;;;10.80;3.92;;;;;;;;;;5033870;28;20022;-77
2021/09/10 01:00:48;;;;;;;13.90;4.47;;;;;;;;;;5035176;28;20466;-78
2021/09/10 01:03:13;;;;;;;13.43;4.22;;;;;;;;;;5035105;28;20042;-78
2021/09/10 01:05:42;;;;;;;9.30;4.68;;;;;;;;;;5035071;28;20382;-77
2021/09/10 01:08:09;;;;;;;8.80;4.13;;;;;;;;;;5067033;28;20363;-77
2021/09/10 01:10:34;;;;;;;10.73;4.50;;;;;;;;;;5034947;28;20037;-78
2021/09/10 01:13:00;;;;;;;12.38;4.32;;;;;;;;;;5035007;28;20044;-77
2021/09/10 01:15:26;;;;;;;10.18;3.65;;;;;;;;;;5034953;28;20385;-77
2021/09/10 01:17:51;;;;;;;14.88;4.18;;;;;;;;;;5034963;28;20386;-78
2021/09/10 01:20:16;;;;;;;15.10;4.38;;;;;;;;;;5034778;28;20454;-77
2021/09/10 01:22:42;;;;;;;9.85;3.38;;;;;;;;;;5034754;28;20036;-77
2021/09/10 01:25:18;;;;;;;10.82;3.40;;;;;;;;;;5034630;28;20424;-77
2021/09/10 01:27:48;;;;;;;8.85;3.60;;;;;;;;;;5034667;28;20040;-78
2021/09/10 01:30:15;;;;;;;7.78;3.60;;;;;;;;;;5034700;28;20381;-77
2021/09/10 01:32:40;;;;;;;11.48;3.85;;;;;;;;;;5034544;28;20054;-77
2021/09/10 01:35:07;;;;;;;11.52;4.13;;;;;;;;;;5034585;28;20041;-78
2021/09/10 01:37:32;;;;;;;10.68;4.55;;;;;;;;;;5050149;28;20071;-78
2021/09/10 01:39:57;;;;;;;9.68;4.35;;;;;;;;;;5054215;28;20067;-78
2021/09/10 01:42:23;;;;;;;13.27;4.55;;;;;;;;;;5053955;28;20385;-77
2021/09/10 01:44:48;;;;;;;15.32;4.55;;;;;;;;;;5054204;28;20037;-78
2021/09/10 01:47:13;;;;;;;9.57;4.03;;;;;;;;;;5054226;28;20052;-77
2021/09/10 01:49:38;;;;;;;14.85;4.32;;;;;;;;;;5054181;28;20021;-77
2021/09/10 01:52:04;;;;;;;11.02;4.10;;;;;;;;;;5054080;28;20429;-77
2021/09/10 01:54:29;;;;;;;12.95;5.03;;;;;;;;;;5053852;28;20028;-78
2021/09/10 01:56:55;;;;;;;12.68;3.53;;;;;;;;;;5053979;28;20104;-77
2021/09/10 01:59:20;;;;;;;7.45;3.78;;;;;;;;;;5053753;28;20127;-77
2021/09/10 02:01:45;;;;;;;16.13;5.10;;;;;;;;;;5053674;28;20039;-79
2021/09/10 02:04:10;;;;;;;9.05;4.60;;;;;;;;;;5053856;28;20462;-77
2021/09/10 02:06:36;;;;;;;11.90;4.90;;;;;;;;;;5052852;28;20063;-77
2021/09/10 02:09:01;;;;;;;9.45;4.40;;;;;;;;;;5053778;28;20013;-78
2021/09/10 02:11:26;;;;;;;18.80;5.28;;;;;;;;;;5053522;28;20380;-77
2021/09/10 02:13:52;;;;;;;10.88;4.40;;;;;;;;;;5054056;28;20041;-78
2021/09/10 02:16:17;;;;;;;17.75;4.35;;;;;;;;;;5053647;28;20025;-78
2021/09/10 02:18:42;;;;;;;14.38;4.05;;;;;;;;;;5053595;28;20041;-77
2021/09/10 02:21:07;;;;;;;9.88;3.97;;;;;;;;;;5053607;28;20393;-77
2021/09/10 02:23:33;;;;;;;8.55;3.78;;;;;;;;;;5053613;28;20146;-78
2021/09/10 02:25:59;;;;;;;11.15;4.22;;;;;;;;;;5053492;28;20033;-78
2021/09/10 02:28:25;;;;;;;10.48;4.72;;;;;;;;;;5053584;28;20040;-77
2021/09/10 02:30:50;;;;;;;13.10;5.22;;;;;;;;;;5053487;28;20441;-77
2021/09/10 02:33:15;;;;;;;15.48;6.30;;;;;;;;;;5053508;28;20535;-77
2021/09/10 02:35:41;;;;;;;17.48;6.40;;;;;;;;;;5053457;28;20527;-77
2021/09/10 02:38:06;;;;;;;16.63;6.75;;;;;;;;;;5053292;28;20381;-77
2021/09/10 02:40:31;;;;;;;16.40;7.90;;;;;;;;;;5053293;28;20040;-77
2021/09/10 02:42:56;;;;;;;18.45;7.57;;;;;;;;;;5053349;28;20029;-79
2021/09/10 02:45:22;;;;;;;18.65;7.72;;;;;;;;;;5053356;28;20122;-78
2021/09/10 02:47:47;;;;;;;17.25;8.25;;;;;;;;;;5052102;28;20044;-77
2021/09/10 02:50:12;;;;;;;20.85;8.93;;;;;;;;;;5053331;28;20043;-78
2021/09/10 02:52:38;;;;;;;20.38;8.45;;;;;;;;;;5053221;28;20071;-78
2021/09/10 02:55:03;;;;;;;23.63;9.10;;;;;;;;;;5053229;28;20466;-77
2021/09/10 02:57:28;;;;;;;25.10;10.30;;;;;;;;;;5053190;28;20102;-77
2021/09/10 02:59:54;;;;;;;29.38;10.80;;;;;;;;;;5053250;28;20480;-77
2021/09/10 03:02:19;;;;;;;22.25;10.50;;;;;;;;;;5053080;28;20063;-78
2021/09/10 03:04:47;;;;;;;27.58;11.50;;;;;;;;;;5052991;28;20495;-77
2021/09/10 03:07:12;;;;;;;29.08;11.57;;;;;;;;;;5052794;28;20404;-78
2021/09/10 03:09:38;;;;;;;27.80;12.15;;;;;;;;;;5052768;28;20039;-77
2021/09/10 03:12:03;;;;;;;38.08;12.02;;;;;;;;;;5052989;28;20113;-77
2021/09/10 03:14:31;;;;;;;40.45;12.65;;;;;;;;;;5053161;28;20021;-78
2021/09/10 03:16:56;;;;;;;28.88;12.95;;;;;;;;;;5052171;28;20543;-78
2021/09/10 03:19:21;;;;;;;36.88;13.63;;;;;;;;;;5056168;28;20028;-77
2021/09/10 03:21:46;;;;;;;27.90;12.35;;;;;;;;;;5057025;28;20405;-77
2021/09/10 03:24:12;;;;;;;31.73;13.75;;;;;;;;;;5057064;28;20060;-77
2021/09/10 03:26:37;;;;;;;38.00;13.57;;;;;;;;;;5056840;28;20033;-77
2021/09/10 03:29:02;;;;;;;35.08;13.00;;;;;;;;;;5056851;28;20384;-77
2021/09/10 03:31:27;;;;;;;39.33;13.82;;;;;;;;;;5056866;28;20029;-77
2021/09/10 03:33:53;;;;;;;40.15;14.18;;;;;;;;;;5056837;28;20568;-77
2021/09/10 03:36:18;;;;;;;40.65;14.95;;;;;;;;;;5056676;28;20013;-77
2021/09/10 03:38:43;;;;;;;36.28;14.57;;;;;;;;;;5055266;28;20041;-77
2021/09/10 03:41:08;;;;;;;40.95;14.38;;;;;;;;;;5056538;28;20473;-77
2021/09/10 03:43:35;;;;;;;49.15;14.85;;;;;;;;;;5056193;28;20033;-77
2021/09/10 03:46:00;;;;;;;44.65;15.48;;;;;;;;;;5056187;28;20465;-78
2021/09/10 03:48:26;;;;;;;42.42;15.20;;;;;;;;;;5056388;28;20031;-78
2021/09/10 03:50:51;;;;;;;45.42;16.80;;;;;;;;;;5056525;28;20086;-78
2021/09/10 03:53:16;;;;;;;39.38;16.00;;;;;;;;;;5056282;28;20029;-77
2021/09/10 03:55:41;;;;;;;42.75;15.75;;;;;;;;;;5056353;28;20134;-77
2021/09/10 03:58:07;;;;;;;40.97;16.05;;;;;;;;;;5056278;28;20481;-77
2021/09/10 04:00:32;;;;;;;36.90;15.10;;;;;;;;;;5056134;28;20042;-77
2021/09/10 04:02:59;;;;;;;36.42;15.45;;;;;;;;;;5056160;28;20028;-77
2021/09/10 04:05:24;;;;;;;34.22;15.25;;;;;;;;;;5056066;28;20066;-77
2021/09/10 04:07:49;;;;;;;32.97;14.68;;;;;;;;;;5056140;28;20029;-78
2021/09/10 04:10:14;;;;;;;37.35;15.57;;;;;;;;;;5056007;28;20064;-77
2021/09/10 04:12:40;;;;;;;40.45;15.85;;;;;;;;;;5055749;28;20021;-77
2021/09/10 04:15:05;;;;;;;43.08;15.77;;;;;;;;;;5055943;28;20116;-77
2021/09/10 04:17:30;;;;;;;45.08;16.65;;;;;;;;;;5055900;28;20492;-77
2021/09/10 04:19:56;;;;;;;42.95;16.00;;;;;;;;;;5055751;28;20047;-77
2021/09/10 04:22:21;;;;;;;46.15;16.67;;;;;;;;;;5055905;28;20112;-78
2021/09/10 04:24:46;;;;;;;47.70;16.50;;;;;;;;;;5055827;28;20037;-78
2021/09/10 04:27:12;;;;;;;42.60;15.98;;;;;;;;;;5055357;28;20021;-77
2021/09/10 04:29:37;;;;;;;44.67;16.25;;;;;;;;;;5054823;28;20033;-77
2021/09/10 04:32:02;;;;;;;49.17;17.42;;;;;;;;;;5055587;28;20051;-78
2021/09/10 04:34:28;;;;;;;44.17;16.70;;;;;;;;;;5055619;28;20139;-77
2021/09/10 04:36:53;;;;;;;46.33;16.23;;;;;;;;;;5055463;28;20480;-77
2021/09/10 04:39:18;;;;;;;48.25;17.05;;;;;;;;;;5055404;28;20389;-78
2021/09/10 04:41:43;;;;;;;52.38;17.55;;;;;;;;;;5055422;28;20025;-77
2021/09/10 04:44:09;;;;;;;52.95;17.98;;;;;;;;;;5055479;28;20116;-77
2021/09/10 04:46:34;;;;;;;49.10;17.63;;;;;;;;;;5055317;28;20040;-77
2021/09/10 04:48:59;;;;;;;52.88;16.20;;;;;;;;;;5055369;28;20107;-77
2021/09/10 04:51:24;;;;;;;54.10;17.52;;;;;;;;;;5055521;28;20029;-77
2021/09/10 04:53:50;;;;;;;44.88;17.02;;;;;;;;;;5055504;28;20494;-78
2021/09/10 04:56:16;;;;;;;54.22;18.02;;;;;;;;;;5054977;28;20051;-78
2021/09/10 04:58:41;;;;;;;59.10;16.90;;;;;;;;;;5053727;28;20037;-77
2021/09/10 05:01:06;;;;;;;55.30;18.27;;;;;;;;;;5055062;28;20028;-77
2021/09/10 05:03:31;;;;;;;54.38;18.98;;;;;;;;;;5055418;28;20025;-78
2021/09/10 05:05:57;;;;;;;47.95;16.92;;;;;;;;;;5055138;28;20476;-77
2021/09/10 05:08:22;;;;;;;51.83;16.80;;;;;;;;;;5054879;28;20473;-77
2021/09/10 05:10:47;;;;;;;56.13;18.52;;;;;;;;;;5055068;28;20021;-77
2021/09/10 05:13:12;;;;;;;61.20;19.05;;;;;;;;;;5054837;28;20025;-77
2021/09/10 05:15:38;;;;;;;47.75;17.85;;;;;;;;;;5054795;28;20106;-77
2021/09/10 05:18:03;;;;;;;42.78;15.98;;;;;;;;;;5054786;28;20025;-78
2021/09/10 05:20:28;;;;;;;35.13;14.60;;;;;;;;;;5054400;28;20080;-77
2021/09/10 05:22:54;;;;;;;36.88;14.50;;;;;;;;;;5054672;28;20033;-77
2021/09/10 05:25:23;;;;;;;33.60;13.98;;;;;;;;;;5054628;28;20047;-78
2021/09/10 05:27:48;;;;;;;32.80;14.57;;;;;;;;;;5054624;28;20107;-77
2021/09/10 05:30:14;;;;;;;39.20;14.73;;;;;;;;;;5054723;28;20485;-77
2021/09/10 05:32:39;;;;;;;35.95;13.82;;;;;;;;;;5054253;28;20098;-77
2021/09/10 05:35:04;;;;;;;33.10;12.82;;;;;;;;;;5054401;28;20035;-78
2021/09/10 05:37:30;;;;;;;30.08;12.27;;;;;;;;;;5054261;28;20077;-77
2021/09/10 05:39:55;;;;;;;32.90;12.52;;;;;;;;;;5054605;28;20054;-77
2021/09/10 05:42:20;;;;;;;28.67;13.10;;;;;;;;;;5053264;28;20029;-78
2021/09/10 05:44:45;;;;;;;35.05;13.68;;;;;;;;;;5054318;28;20033;-78
2021/09/10 05:47:11;;;;;;;36.97;13.65;;;;;;;;;;5053925;28;20032;-77
2021/09/10 05:49:36;;;;;;;24.63;10.65;;;;;;;;;;5054407;28;20033;-77
2021/09/10 05:52:01;;;;;;;22.10;10.20;;;;;;;;;;5054190;28;20040;-77
2021/09/10 05:54:26;;;;;;;20.52;9.18;;;;;;;;;;5054084;28;20056;-77
2021/09/10 05:56:52;;;;;;;26.20;10.25;;;;;;;;;;5054071;28;20569;-78
2021/09/10 05:59:17;;;;;;;19.85;9.50;;;;;;;;;;5053872;28;20037;-77
2021/09/10 06:01:42;;;;;;;17.38;8.77;;;;;;;;;;5053998;28;20052;-77
2021/09/10 06:04:08;;;;;;;20.50;9.18;;;;;;;;;;5053876;28;20033;-77
2021/09/10 06:06:33;;;;;;;14.60;6.22;;;;;;;;;;5054012;28;20068;-77
2021/09/10 06:08:58;;;;;;;7.88;4.00;;;;;;;;;;5053835;28;20094;-77
2021/09/10 06:11:24;;;;;;;17.50;6.40;;;;;;;;;;5053513;28;20085;-78
2021/09/10 06:13:49;;;;;;;20.67;7.40;;;;;;;;;;5053790;28;20063;-78
2021/09/10 06:16:14;;;;;;;27.42;8.57;;;;;;;;;;5053872;28;20020;-77
2021/09/10 06:18:39;;;;;;;26.55;9.40;;;;;;;;;;5053545;28;20021;-77
2021/09/10 06:21:05;;;;;;;24.27;8.10;;;;;;;;;;5053395;28;20579;-77
2021/09/10 06:23:30;;;;;;;20.67;6.50;;;;;;;;;;5053764;28;20028;-77
2021/09/10 06:25:55;;;;;;;22.42;6.32;;;;;;;;;;5053550;28;20029;-77
2021/09/10 06:28:21;;;;;;;14.88;6.32;;;;;;;;;;5053539;28;20390;-78
2021/09/10 06:30:46;;;;;;;20.33;6.70;;;;;;;;;;5053523;28;20106;-77
2021/09/10 06:33:11;;;;;;;13.27;5.50;;;;;;;;;;5053273;28;20052;-77
2021/09/10 06:35:36;;;;;;;11.20;5.07;;;;;;;;;;5053390;28;20196;-77
2021/09/10 06:38:03;;;;;;;12.75;4.63;;;;;;;;;;5053350;28;20370;-77
2021/09/10 06:40:28;;;;;;;13.55;5.30;;;;;;;;;;5053673;28;20091;-77
2021/09/10 06:42:54;;;;;;;10.73;4.00;;;;;;;;;;5053208;28;20393;-77
2021/09/10 06:45:19;;;;;;;7.80;4.05;;;;;;;;;;5053421;28;20438;-78
2021/09/10 06:47:44;;;;;;;8.98;3.92;;;;;;;;;;5053078;28;20021;-77
2021/09/10 06:50:10;;;;;;;4.53;2.50;;;;;;;;;;5053519;28;20047;-77
2021/09/10 06:52:37;;;;;;;4.15;2.20;;;;;;;;;;5052967;28;20013;-77
2021/09/10 06:55:03;;;;;;;11.88;3.08;;;;;;;;;;5052127;28;20029;-77
2021/09/10 06:57:28;;;;;;;5.20;3.15;;;;;;;;;;5053056;28;20484;-77
2021/09/10 06:59:53;;;;;;;5.00;2.80;;;;;;;;;;5046606;28;20057;-77
2021/09/10 07:02:19;;;;;;;4.15;2.22;;;;;;;;;;5035428;28;20029;-77
2021/09/10 07:04:44;;;;;;;6.80;2.45;;;;;;;;;;5052801;28;20033;-77
2021/09/10 07:07:09;;;;;;;5.22;2.20;;;;;;;;;;5049235;28;20021;-77
2021/09/10 07:09:34;;;;;;;4.13;2.35;;;;;;;;;;5033202;28;20045;-77
2021/09/10 07:12:02;;;;;;;5.65;2.33;;;;;;;;;;5033210;28;20167;-77
2021/09/10 07:14:27;;;;;;;6.72;2.80;;;;;;;;;;5048911;28;20028;-77
2021/09/10 07:16:52;;;;;;;3.60;2.20;;;;;;;;;;5039615;28;20112;-77
2021/09/10 07:19:17;;;;;;;3.97;2.03;;;;;;;;;;5044444;28;20103;-76
2021/09/10 07:21:43;;;;;;;4.97;2.45;;;;;;;;;;5034031;28;20057;-77
2021/09/10 07:24:08;;;;;;;4.78;2.13;;;;;;;;;;5043821;28;20029;-77
2021/09/10 07:26:33;;;;;;;4.95;2.83;;;;;;;;;;5033133;28;20438;-77
2021/09/10 07:28:59;;;;;;;7.30;2.92;;;;;;;;;;5033037;28;20021;-77
2021/09/10 07:31:24;;;;;;;6.97;2.65;;;;;;;;;;5033063;28;20048;-77
2021/09/10 07:33:50;;;;;;;4.30;2.20;;;;;;;;;;5032728;28;20137;-77
2021/09/10 07:36:15;;;;;;;4.97;2.78;;;;;;;;;;5036451;28;20579;-78
2021/09/10 07:38:40;;;;;;;5.90;2.72;;;;;;;;;;5050987;28;20043;-77
2021/09/10 07:41:06;;;;;;;6.50;3.05;;;;;;;;;;5044725;28;20037;-77
2021/09/10 07:43:32;;;;;;;6.47;2.72;;;;;;;;;;5033141;28;20022;-77
2021/09/10 07:45:57;;;;;;;5.13;2.83;;;;;;;;;;5035533;28;20367;-78
2021/09/10 07:48:22;;;;;;;6.85;3.35;;;;;;;;;;5068350;28;20123;-77
2021/09/10 07:50:47;;;;;;;11.13;3.00;;;;;;;;;;5054302;28;20044;-77
2021/09/10 07:53:13;;;;;;;6.75;2.67;;;;;;;;;;5057418;28;20025;-77
2021/09/10 07:55:38;;;;;;;6.53;2.78;;;;;;;;;;5064105;28;20385;-77
2021/09/10 07:58:03;;;;;;;7.93;3.63;;;;;;;;;;5063912;28;20151;-78
2021/09/10 08:00:29;;;;;;;7.03;2.92;;;;;;;;;;5056690;28;20041;-77
2021/09/10 08:02:54;;;;;;;4.03;2.75;;;;;;;;;;5068932;28;20480;-78
2021/09/10 08:05:19;;;;;;;10.55;2.90;;;;;;;;;;5059534;28;20016;-77
2021/09/10 08:07:45;;;;;;;8.10;3.13;;;;;;;;;;5066442;28;20033;-77
2021/09/10 08:10:17;;;;;;;7.45;3.05;;;;;;;;;;5063346;28;20040;-78
2021/09/10 08:12:46;;;;;;;6.60;2.80;;;;;;;;;;5056503;28;20079;-78
2021/09/10 08:15:12;;;;;;;8.50;2.75;;;;;;;;;;5071256;28;20078;-78
2021/09/10 08:17:37;;;;;;;4.68;2.95;;;;;;;;;;5063459;28;20469;-77
2021/09/10 08:20:04;;;;;;;4.55;2.70;;;;;;;;;;5063947;28;20041;-78
2021/09/10 08:22:30;;;;;;;5.25;2.88;;;;;;;;;;5066426;28;20060;-77
2021/09/10 08:24:56;;;;;;;13.23;2.70;;;;;;;;;;5053058;28;20060;-80
2021/09/10 08:27:21;;;;;;;8.93;2.90;;;;;;;;;;5051573;28;20028;-79
2021/09/10 08:29:47;;;;;;;6.95;2.60;;;;;;;;;;5052252;28;20033;-78
2021/09/10 08:32:12;;;;;;;5.75;2.33;;;;;;;;;;5051913;28;20057;-77
2021/09/10 08:34:37;;;;;;;6.93;2.92;;;;;;;;;;5052172;28;20017;-77
2021/09/10 08:37:02;;;;;;;4.07;2.25;;;;;;;;;;5043919;28;20095;-78
2021/09/10 08:39:28;;;;;;;7.10;2.85;;;;;;;;;;5032108;28;20079;-78
2021/09/10 08:41:53;;;;;;;6.93;2.97;;;;;;;;;;5042653;28;20025;-77
2021/09/10 08:44:18;;;;;;;6.30;2.30;;;;;;;;;;5052238;28;20446;-78
2021/09/10 08:46:45;;;;;;;5.78;2.65;;;;;;;;;;5051649;28;20084;-77
2021/09/10 08:49:16;;;;;;;5.00;2.30;;;;;;;;;;5052296;28;20017;-77
2021/09/10 08:51:42;;;;;;;7.38;2.65;;;;;;;;;;5048723;28;20111;-77
2021/09/10 08:54:07;;;;;;;5.45;2.72;;;;;;;;;;5047440;28;20168;-78
2021/09/10 08:56:33;;;;;;;8.45;2.80;;;;;;;;;;5051714;28;20028;-78
2021/09/10 08:59:05;;;;;;;5.47;2.20;;;;;;;;;;5052534;28;20037;-78
2021/09/10 09:01:30;;;;;;;5.03;2.50;;;;;;;;;;5049119;28;20040;-78
2021/09/10 09:04:02;;;;;;;4.00;2.63;;;;;;;;;;5050354;28;20032;-78
2021/09/10 09:06:34;;;;;;;4.72;2.35;;;;;;;;;;5050823;28;20037;-78
2021/09/10 09:09:00;;;;;;;6.10;2.03;;;;;;;;;;5051491;28;20033;-78
2021/09/10 09:11:25;;;;;;;5.88;2.72;;;;;;;;;;5051550;28;20028;-78
2021/09/10 09:13:53;;;;;;;2.70;1.90;;;;;;;;;;5036213;28;20026;-78
2021/09/10 09:16:30;;;;;;;4.22;1.83;;;;;;;;;;5032064;28;20593;-79
2021/09/10 09:18:59;;;;;;;4.03;1.70;;;;;;;;;;5051169;28;20029;-78
2021/09/10 09:21:25;;;;;;;2.25;1.60;;;;;;;;;;5051334;28;20033;-78
2021/09/10 09:23:52;;;;;;;4.00;1.90;;;;;;;;;;5051506;28;20562;-78
2021/09/10 09:26:18;;;;;;;2.20;1.35;;;;;;;;;;5051061;28;20028;-78
2021/09/10 09:28:44;;;;;;;1.77;1.15;;;;;;;;;;5051546;28;20116;-77
2021/09/10 09:31:10;;;;;;;4.55;1.48;;;;;;;;;;5051090;28;20438;-79
2021/09/10 09:33:37;;;;;;;3.78;1.83;;;;;;;;;;5050801;28;20052;-77
2021/09/10 09:36:03;;;;;;;3.28;1.60;;;;;;;;;;5050716;28;20024;-77
2021/09/10 09:38:30;;;;;;;6.72;1.70;;;;;;;;;;5050428;28;20025;-77
2021/09/10 09:40:59;;;;;;;2.42;1.30;;;;;;;;;;5051130;28;20041;-78
2021/09/10 09:43:36;;;;;;;2.97;1.50;;;;;;;;;;5051312;28;20465;-78
2021/09/10 09:46:05;;;;;;;2.25;1.30;;;;;;;;;;5048404;28;20056;-78
2021/09/10 09:48:30;;;;;;;3.20;1.20;;;;;;;;;;5050551;28;20044;-78
2021/09/10 09:50:58;;;;;;;2.17;1.20;;;;;;;;;;5050800;28;20043;-80
2021/09/10 09:53:23;;;;;;;2.47;1.15;;;;;;;;;;5051474;28;20048;-78
2021/09/10 09:55:49;;;;;;;3.30;1.30;;;;;;;;;;5050682;28;20037;-79
2021/09/10 09:58:15;;;;;;;3.05;1.50;;;;;;;;;;5049744;28;20361;-78
2021/09/10 10:00:41;;;;;;;3.88;1.40;;;;;;;;;;5049314;28;20508;-78
2021/09/10 10:03:07;;;;;;;1.80;1.25;;;;;;;;;;5050553;28;20110;-78
2021/09/10 10:05:36;;;;;;;4.45;1.40;;;;;;;;;;5049617;28;20053;-80
2021/09/10 10:08:03;;;;;;;3.38;1.58;;;;;;;;;;5049885;28;20521;-78
2021/09/10 10:10:32;;;;;;;7.55;1.83;;;;;;;;;;5049147;28;20036;-78
2021/09/10 10:12:58;;;;;;;4.47;1.52;;;;;;;;;;5050215;28;20053;-78
2021/09/10 10:15:23;;;;;;;2.75;1.25;;;;;;;;;;5050314;28;20118;-78
2021/09/10 10:17:49;;;;;;;4.20;1.60;;;;;;;;;;5032957;28;20221;-78
2021/09/10 10:20:38;;;;;;;5.07;1.83;;;;;;;;;;5029033;28;20491;-77
2021/09/10 10:23:03;;;;;;;5.43;1.75;;;;;;;;;;5026956;28;20056;-77
2021/09/10 10:25:29;;;;;;;6.50;2.00;;;;;;;;;;5030709;28;20022;-77
2021/09/10 10:27:54;;;;;;;4.75;2.00;;;;;;;;;;5027938;28;20366;-77
2021/09/10 10:30:20;;;;;;;6.07;2.00;;;;;;;;;;5030468;28;20034;-78
2021/09/10 10:32:47;;;;;;;6.35;1.90;;;;;;;;;;5027382;28;20057;-80
2021/09/10 10:35:30;;;;;;;5.75;2.13;;;;;;;;;;5029852;28;20022;-78
2021/09/10 10:38:01;;;;;;;3.97;1.77;;;;;;;;;;5029755;28;20033;-78
2021/09/10 10:40:32;;;;;;;8.30;2.58;;;;;;;;;;5029572;28;20033;-77
2021/09/10 10:43:00;;;;;;;2.83;1.42;;;;;;;;;;5030223;28;20033;-78
2021/09/10 10:45:46;;;;;;;6.40;1.60;;;;;;;;;;5029761;28;20033;-78
2021/09/10 10:48:30;;;;;;;5.10;1.77;;;;;;;;;;5029470;28;20026;-78
2021/09/10 10:51:02;;;;;;;6.82;1.25;;;;;;;;;;5029244;28;20500;-79
2021/09/10 10:53:28;;;;;;;2.13;1.13;;;;;;;;;;5029839;28;20466;-77
2021/09/10 10:55:54;;;;;;;2.88;1.48;;;;;;;;;;5029523;28;20045;-80
2021/09/10 10:58:23;;;;;;;3.50;1.20;;;;;;;;;;5028600;28;20036;-78
2021/09/10 11:00:57;;;;;;;3.65;1.38;;;;;;;;;;5029587;28;20041;-78
2021/09/10 11:03:23;;;;;;;2.17;1.10;;;;;;;;;;5030516;28;20029;-79
2021/09/10 11:05:52;;;;;;;5.95;1.52;;;;;;;;;;5029638;28;20037;-78
2021/09/10 11:08:39;;;;;;;3.45;1.42;;;;;;;;;;5029408;28;20522;-77
2021/09/10 11:11:05;;;;;;;2.30;1.00;;;;;;;;;;5034546;28;20025;-77
2021/09/10 11:13:30;;;;;;;5.10;1.52;;;;;;;;;;5049992;28;20449;-78
2021/09/10 11:15:56;;;;;;;2.80;1.23;;;;;;;;;;5049998;28;20025;-78
2021/09/10 11:18:23;;;;;;;4.15;1.20;;;;;;;;;;5049418;28;20376;-78
2021/09/10 11:20:50;;;;;;;5.68;1.50;;;;;;;;;;5049728;28;20043;-79
2021/09/10 11:23:25;;;;;;;5.53;1.27;;;;;;;;;;5048974;28;20143;-78
2021/09/10 11:25:51;;;;;;;3.78;1.90;;;;;;;;;;5049613;28;20095;-78
2021/09/10 11:28:17;;;;;;;5.40;1.73;;;;;;;;;;5042793;28;20040;-78
2021/09/10 11:30:43;;;;;;;3.95;1.48;;;;;;;;;;5029745;28;20394;-78
2021/09/10 11:33:08;;;;;;;6.32;1.48;;;;;;;;;;5029075;28;20075;-81
2021/09/10 11:35:36;;;;;;;4.65;2.47;;;;;;;;;;5029949;28;20033;-78
2021/09/10 11:38:01;;;;;;;8.93;1.83;;;;;;;;;;5047433;28;20024;-78
2021/09/10 11:40:36;;;;;;;4.38;2.17;;;;;;;;;;5051946;28;20469;-79
2021/09/10 11:43:03;;;;;;;9.53;3.13;;;;;;;;;;5053733;28;20052;-80
2021/09/10 11:45:30;;;;;;;4.07;1.80;;;;;;;;;;5053439;28;20262;-79
2021/09/10 11:47:56;;;;;;;3.83;2.10;;;;;;;;;;5053501;28;20033;-79
2021/09/10 11:50:21;;;;;;;4.40;2.30;;;;;;;;;;5052906;28;20029;-78
2021/09/10 11:52:46;;;;;;;3.63;1.58;;;;;;;;;;5054281;28;20108;-78
2021/09/10 11:55:13;;;;;;;5.28;1.50;;;;;;;;;;5052744;28;20028;-78
2021/09/10 11:57:39;;;;;;;2.72;1.23;;;;;;;;;;5051399;28;20085;-78
2021/09/10 12:00:05;;;;;;;2.35;1.25;;;;;;;;;;5052418;28;20493;-78
2021/09/10 12:02:33;;;;;;;5.75;1.75;;;;;;;;;;5053166;28;20083;-78
2021/09/10 12:05:00;;;;;;;6.65;1.75;;;;;;;;;;5053397;28;20023;-79
2021/09/10 12:07:29;;;;;;;5.28;2.00;;;;;;;;;;5047697;28;20385;-78
2021/09/10 12:09:55;;;;;;;8.60;3.30;;;;;;;;;;5052056;28;20033;-78
2021/09/10 12:12:24;;;;;;;7.65;2.72;;;;;;;;;;5052708;28;20070;-78
2021/09/10 12:14:52;;;;;;;8.07;3.25;;;;;;;;;;5052070;28;20036;-80
2021/09/10 12:17:24;;;;;;;6.35;2.85;;;;;;;;;;5050983;28;20121;-79
2021/09/10 12:19:55;;;;;;;5.28;2.53;;;;;;;;;;5051130;28;20045;-78
2021/09/10 12:22:36;;;;;;;4.85;2.20;;;;;;;;;;5051559;28;20033;-78
2021/09/10 12:25:19;;;;;;;6.55;1.70;;;;;;;;;;5051807;28;20033;-83
2021/09/10 12:27:45;;;;;;;5.20;2.15;;;;;;;;;;5051481;28;20036;-78
2021/09/10 12:30:11;;;;;;;5.38;1.50;;;;;;;;;;5050896;28;20055;-78
2021/09/10 12:32:36;;;;;;;6.60;1.58;;;;;;;;;;5049828;28;20049;-79
2021/09/10 12:35:02;;;;;;;5.43;1.40;;;;;;;;;;5052604;28;20465;-79
2021/09/10 12:37:30;;;;;;;8.70;1.85;;;;;;;;;;5051251;28;20116;-78
2021/09/10 12:39:55;;;;;;;4.07;1.55;;;;;;;;;;5050801;28;20036;-77
2021/09/10 12:42:21;;;;;;;3.83;1.20;;;;;;;;;;5051490;28;20107;-78
2021/09/10 12:44:46;;;;;;;6.57;1.75;;;;;;;;;;5051825;28;20029;-78
2021/09/10 12:47:11;;;;;;;5.82;1.85;;;;;;;;;;5051910;28;20033;-78
2021/09/10 12:49:37;;;;;;;5.55;2.20;;;;;;;;;;5051625;28;20040;-79
2021/09/10 12:52:02;;;;;;;9.63;3.17;;;;;;;;;;5050908;28;20036;-78
2021/09/10 12:54:27;;;;;;;7.10;2.80;;;;;;;;;;5051276;28;20466;-78
2021/09/10 12:56:52;;;;;;;5.93;2.70;;;;;;;;;;5051304;28;20024;-78
2021/09/10 12:59:18;;;;;;;6.63;2.50;;;;;;;;;;5050831;28;20461;-80
2021/09/10 13:01:43;;;;;;;8.20;1.90;;;;;;;;;;5051367;28;20036;-80
2021/09/10 13:04:08;;;;;;;7.35;1.98;;;;;;;;;;5050940;28;20032;-78
2021/09/10 13:06:33;;;;;;;6.45;1.90;;;;;;;;;;5050713;28;20057;-78
2021/09/10 13:08:59;;;;;;;4.80;1.58;;;;;;;;;;5051116;28;20389;-80
2021/09/10 13:11:24;;;;;;;8.00;2.60;;;;;;;;;;5050105;28;20067;-79
2021/09/10 13:13:49;;;;;;;6.88;1.90;;;;;;;;;;5051716;28;20083;-79
2021/09/10 13:16:14;;;;;;;6.40;2.00;;;;;;;;;;5049440;28;20158;-78
2021/09/10 13:18:40;;;;;;;5.23;1.57;;;;;;;;;;5050981;28;20438;-78
2021/09/10 13:21:05;;;;;;;5.80;1.65;;;;;;;;;;5050444;28;20615;-78
2021/09/10 13:23:30;;;;;;;5.75;1.65;;;;;;;;;;5050725;28;20124;-78
2021/09/10 13:25:57;;;;;;;5.18;1.70;;;;;;;;;;5050745;28;20469;-79
2021/09/10 13:28:22;;;;;;;5.40;1.85;;;;;;;;;;5050715;28;20025;-78
2021/09/10 13:30:48;;;;;;;4.30;1.70;;;;;;;;;;5049952;28;20389;-78
2021/09/10 13:33:13;;;;;;;5.65;1.90;;;;;;;;;;5050746;28;20053;-80
2021/09/10 13:35:38;;;;;;;4.47;1.77;;;;;;;;;;5050370;28;20059;-78
2021/09/10 13:38:03;;;;;;;4.45;1.70;;;;;;;;;;5051063;28;20032;-78
2021/09/10 13:40:28;;;;;;;4.97;1.90;;;;;;;;;;5050519;28;20044;-83
2021/09/10 13:42:54;;;;;;;8.00;2.50;;;;;;;;;;5045986;28;20037;-78
2021/09/10 13:45:19;;;;;;;5.95;1.52;;;;;;;;;;5032743;28;20029;-78
2021/09/10 13:47:44;;;;;;;5.25;2.15;;;;;;;;;;5029619;28;20018;-78
2021/09/10 13:50:10;;;;;;;4.32;1.55;;;;;;;;;;5030759;28;20071;-79
2021/09/10 13:52:35;;;;;;;9.52;1.80;;;;;;;;;;5029842;28;20025;-82
2021/09/10 13:55:00;;;;;;;5.93;2.50;;;;;;;;;;5030282;28;20022;-78
2021/09/10 13:57:26;;;;;;;5.63;1.70;;;;;;;;;;5033387;28;20388;-79
2021/09/10 13:59:51;;;;;;;5.95;2.15;;;;;;;;;;5049707;28;20029;-78
2021/09/10 14:02:16;;;;;;;7.85;1.80;;;;;;;;;;5049595;28;20021;-78
2021/09/10 14:04:42;;;;;;;4.80;1.75;;;;;;;;;;5036008;28;20366;-79
2021/09/10 14:07:07;;;;;;;7.25;2.03;;;;;;;;;;5029811;28;20163;-79
2021/09/10 14:09:32;;;;;;;6.38;2.10;;;;;;;;;;5030000;28;20425;-78
2021/09/10 14:11:58;;;;;;;5.75;2.05;;;;;;;;;;5042954;28;20037;-79
2021/09/10 14:14:23;;;;;;;6.57;2.85;;;;;;;;;;5049524;28;20080;-83
2021/09/10 14:16:51;;;;;;;9.20;4.72;;;;;;;;;;5048594;28;20107;-80
2021/09/10 14:19:16;;;;;;;9.05;4.32;;;;;;;;;;5047797;28;20409;-79
2021/09/10 14:21:42;;;;;;;6.32;3.08;;;;;;;;;;5047563;28;20032;-78
2021/09/10 14:24:07;;;;;;;6.07;3.83;;;;;;;;;;5048707;28;20017;-78
2021/09/10 14:26:32;;;;;;;7.40;3.13;;;;;;;;;;5047943;28;20151;-78